Time;durP1;ratioP1;P1;durP2;ratioP2;P2;SDS_P1;SDS_P2;PMS_P1;PMS_P2;Temp;Humidity;BMP_temperature;BMP_pressure;BME280_temperature;BME280_humidity;BME280_pressure;Samples;Min_cycle;Max_cycle;Signal;HPM_P1;HPM_P2
2022/11/03 00:01:17;;;;;;;31.48;12.57;;;;;;;;;;8137196;29;20557;-87
2022/11/03 00:09:40;;;;;;;36.25;13.07;;;;;;;;;;8152269;29;20443;-84
2022/11/03 00:13:45;;;;;;;118.78;38.72;;;;;;;;;;8138703;29;20120;-84
2022/11/03 00:17:48;;;;;;;43.95;16.92;;;;;;;;;;8144551;29;20055;-85
2022/11/03 00:21:53;;;;;;;41.97;16.45;;;;;;;;;;8141830;29;20116;-87
2022/11/03 00:25:56;;;;;;;32.88;12.32;;;;;;;;;;8136893;29;20139;-84
2022/11/03 00:30:02;;;;;;;30.95;11.38;;;;;;;;;;8118610;29;20522;-84
2022/11/03 00:34:08;;;;;;;46.75;17.70;;;;;;;;;;8148884;29;20056;-85
2022/11/03 00:38:11;;;;;;;81.68;34.03;;;;;;;;;;8136170;29;20464;-84
2022/11/03 00:42:13;;;;;;;62.97;29.70;;;;;;;;;;8136590;29;20063;-84
2022/11/03 00:46:21;;;;;;;31.13;15.57;;;;;;;;;;8136046;29;20064;-84
2022/11/03 00:50:26;;;;;;;81.63;36.22;;;;;;;;;;8136308;29;20135;-85
2022/11/03 00:54:28;;;;;;;79.57;31.65;;;;;;;;;;8136419;29;20143;-85
2022/11/03 00:58:31;;;;;;;74.05;28.77;;;;;;;;;;8136416;29;20075;-84
2022/11/03 01:02:39;;;;;;;61.85;27.27;;;;;;;;;;8123825;29;20060;-87
2022/11/03 01:06:49;;;;;;;71.97;27.73;;;;;;;;;;8125353;29;20060;-84
2022/11/03 01:15:09;;;;;;;61.95;24.40;;;;;;;;;;8123160;29;20055;-84
2022/11/03 01:19:15;;;;;;;47.22;15.90;;;;;;;;;;8141833;29;20489;-83
2022/11/03 01:23:17;;;;;;;37.00;13.45;;;;;;;;;;8141619;29;20063;-85
2022/11/03 01:27:24;;;;;;;28.77;11.93;;;;;;;;;;8140769;29;20685;-84
2022/11/03 01:31:28;;;;;;;35.13;13.95;;;;;;;;;;8145485;29;20060;-86
2022/11/03 01:45:10;;;;;;;23.77;11.15;;;;;;;;;;8044289;29;20084;-83
2022/11/03 01:50:06;;;;;;;25.83;9.70;;;;;;;;;;8043403;29;20423;-84
2022/11/03 01:59:13;;;;;;;33.35;10.82;;;;;;;;;;8019678;29;20244;-83
2022/11/03 02:03:18;;;;;;;25.05;8.60;;;;;;;;;;8043701;29;20546;-84
2022/11/03 02:07:27;;;;;;;73.25;16.42;;;;;;;;;;8097401;29;20064;-84
2022/11/03 02:15:54;;;;;;;21.50;9.85;;;;;;;;;;8160653;29;20059;-84
2022/11/03 02:25:11;;;;;;;26.52;9.68;;;;;;;;;;8164431;29;20581;-83
2022/11/03 02:29:15;;;;;;;35.22;12.00;;;;;;;;;;8171158;29;20519;-84
2022/11/03 02:33:28;;;;;;;31.98;10.70;;;;;;;;;;8170858;29;20623;-83
2022/11/03 02:37:35;;;;;;;34.13;12.10;;;;;;;;;;8170850;29;20086;-86
2022/11/03 02:41:40;;;;;;;28.90;10.57;;;;;;;;;;8153949;29;20055;-86
2022/11/03 02:45:49;;;;;;;24.17;10.55;;;;;;;;;;8154041;29;20064;-86
2022/11/03 02:49:56;;;;;;;25.02;9.45;;;;;;;;;;8154083;29;20060;-83
2022/11/03 02:54:07;;;;;;;26.65;10.30;;;;;;;;;;8154023;29;20059;-86
2022/11/03 02:58:17;;;;;;;28.45;10.52;;;;;;;;;;8154153;29;20055;-84
2022/11/03 03:02:31;;;;;;;23.60;9.45;;;;;;;;;;8154103;29;20079;-84
2022/11/03 03:06:40;;;;;;;28.35;10.10;;;;;;;;;;8153443;29;20059;-83
2022/11/03 03:10:45;;;;;;;35.25;11.50;;;;;;;;;;8153615;29;20056;-83
2022/11/03 03:14:50;;;;;;;29.65;9.80;;;;;;;;;;8153133;29;20060;-83
2022/11/03 03:19:04;;;;;;;24.42;8.68;;;;;;;;;;8169990;29;20055;-82
2022/11/03 03:23:16;;;;;;;25.60;9.88;;;;;;;;;;8148252;29;20063;-83
2022/11/03 03:27:22;;;;;;;26.83;9.68;;;;;;;;;;8152549;29;20087;-83
2022/11/03 03:31:28;;;;;;;25.67;9.70;;;;;;;;;;8153104;29;20126;-83
2022/11/03 03:35:36;;;;;;;97.07;20.00;;;;;;;;;;8152784;29;20108;-85
2022/11/03 03:39:44;;;;;;;29.30;9.80;;;;;;;;;;8152385;29;20067;-83
2022/11/03 03:43:49;;;;;;;27.92;10.77;;;;;;;;;;8168867;29;20059;-83
2022/11/03 03:47:52;;;;;;;34.47;10.65;;;;;;;;;;8169348;29;20067;-85
2022/11/03 03:51:56;;;;;;;26.25;9.10;;;;;;;;;;8169207;29;20492;-84
2022/11/03 03:55:59;;;;;;;27.67;9.10;;;;;;;;;;8152045;29;20063;-84
2022/11/03 04:00:05;;;;;;;30.02;10.23;;;;;;;;;;8166131;29;20126;-83
2022/11/03 04:04:07;;;;;;;28.67;10.18;;;;;;;;;;8162037;29;20055;-83
2022/11/03 04:08:12;;;;;;;27.25;8.85;;;;;;;;;;8168573;29;20068;-82
2022/11/03 04:25:16;;;;;;;62.22;15.77;;;;;;;;;;8168276;29;20052;-82
2022/11/03 04:29:18;;;;;;;28.85;9.27;;;;;;;;;;8168232;29;20083;-83
2022/11/03 04:33:21;;;;;;;25.83;10.07;;;;;;;;;;8168194;29;20056;-82
2022/11/03 04:37:27;;;;;;;24.15;8.77;;;;;;;;;;8172356;29;20060;-84
2022/11/03 04:41:33;;;;;;;31.23;13.82;;;;;;;;;;8170078;29;20082;-85
2022/11/03 04:45:37;;;;;;;31.38;12.25;;;;;;;;;;8172565;29;20047;-83
2022/11/03 04:49:39;;;;;;;29.40;10.05;;;;;;;;;;8173898;29;20071;-83
2022/11/03 04:53:48;;;;;;;40.83;14.98;;;;;;;;;;8171515;29;20530;-85
2022/11/03 04:57:57;;;;;;;36.85;13.43;;;;;;;;;;8165285;29;20063;-83
2022/11/03 05:02:01;;;;;;;37.35;13.02;;;;;;;;;;8138574;29;20063;-84
2022/11/03 05:06:12;;;;;;;33.60;13.27;;;;;;;;;;8141883;29;20103;-83
2022/11/03 05:10:18;;;;;;;45.10;17.67;;;;;;;;;;8142830;29;20504;-84
2022/11/03 05:14:24;;;;;;;47.20;15.63;;;;;;;;;;8135277;29;20536;-83
2022/11/03 05:18:31;;;;;;;36.30;11.40;;;;;;;;;;8143748;29;20484;-84
2022/11/03 05:22:37;;;;;;;45.88;13.55;;;;;;;;;;8152345;29;20138;-85
2022/11/03 05:26:41;;;;;;;44.88;15.32;;;;;;;;;;8170872;29;20156;-84
2022/11/03 05:30:45;;;;;;;44.60;16.77;;;;;;;;;;8161268;29;20059;-89
2022/11/03 05:34:49;;;;;;;56.17;17.70;;;;;;;;;;8169315;29;20484;-83
2022/11/03 05:38:55;;;;;;;53.03;19.17;;;;;;;;;;8160859;29;20143;-83
2022/11/03 05:43:01;;;;;;;61.92;20.05;;;;;;;;;;8169037;29;20059;-85
2022/11/03 05:47:12;;;;;;;41.72;16.25;;;;;;;;;;8172052;29;20047;-84
2022/11/03 05:51:17;;;;;;;;;;;;;;;;;;8172932;29;20055;-83
2022/11/03 05:55:25;;;;;;;51.13;14.40;;;;;;;;;;8167622;29;20343;-87
2022/11/03 06:03:31;;;;;;;47.88;17.90;;;;;;;;;;8419105;23;20083;-83
2022/11/03 06:07:34;;;;;;;52.55;14.52;;;;;;;;;;8171444;29;20051;-84
2022/11/03 06:11:37;;;;;;;45.33;14.82;;;;;;;;;;8171411;29;20079;-84
2022/11/03 06:15:43;;;;;;;52.47;13.77;;;;;;;;;;8171606;29;20055;-83
2022/11/03 06:19:49;;;;;;;39.03;14.68;;;;;;;;;;8172027;29;20082;-83
2022/11/03 06:23:53;;;;;;;51.75;16.58;;;;;;;;;;8171685;29;20404;-88
2022/11/03 06:28:01;;;;;;;43.72;15.23;;;;;;;;;;8162496;29;20108;-88
2022/11/03 06:32:09;;;;;;;61.17;23.35;;;;;;;;;;8161167;29;20048;-88
2022/11/03 06:36:18;;;;;;;39.67;14.93;;;;;;;;;;8167385;29;20130;-87
2022/11/03 06:40:36;;;;;;;62.28;21.60;;;;;;;;;;8143169;29;20055;-86
2022/11/03 06:44:45;;;;;;;75.53;27.65;;;;;;;;;;8153401;29;20052;-85
2022/11/03 06:48:54;;;;;;;53.70;22.83;;;;;;;;;;8156479;29;20596;-84
2022/11/03 06:53:04;;;;;;;45.50;19.23;;;;;;;;;;8371944;23;20060;-86
2022/11/03 06:57:20;;;;;;;39.60;17.73;;;;;;;;;;8152381;29;20063;-87
2022/11/03 07:01:30;;;;;;;38.63;15.02;;;;;;;;;;8163749;29;20066;-85
2022/11/03 07:05:38;;;;;;;29.83;12.32;;;;;;;;;;8148541;29;20070;-83
2022/11/03 07:09:42;;;;;;;29.80;13.43;;;;;;;;;;8129952;29;20059;-91
2022/11/03 07:13:46;;;;;;;37.13;13.70;;;;;;;;;;8165097;29;20130;-85
2022/11/03 07:17:48;;;;;;;37.50;13.43;;;;;;;;;;8169385;29;20540;-83
2022/11/03 07:21:53;;;;;;;39.40;14.05;;;;;;;;;;8170587;29;20114;-86
2022/11/03 07:25:59;;;;;;;32.63;12.98;;;;;;;;;;8170554;29;20060;-82
2022/11/03 07:30:16;;;;;;;26.75;14.55;;;;;;;;;;8151039;29;20071;-84
2022/11/03 07:34:22;;;;;;;19.83;12.07;;;;;;;;;;8138593;29;20130;-82
2022/11/03 07:38:29;;;;;;;22.23;11.02;;;;;;;;;;8158915;29;20139;-85
2022/11/03 07:42:33;;;;;;;20.27;10.43;;;;;;;;;;8164906;29;20060;-85
2022/11/03 07:46:38;;;;;;;23.83;14.93;;;;;;;;;;8164563;29;20507;-86
2022/11/03 07:50:40;;;;;;;14.98;8.68;;;;;;;;;;8154332;29;20120;-86
2022/11/03 07:54:43;;;;;;;16.20;9.10;;;;;;;;;;8156165;29;20068;-86
2022/11/03 07:58:52;;;;;;;24.38;14.27;;;;;;;;;;8161028;29;20055;-91
2022/11/03 08:03:00;;;;;;;20.15;12.38;;;;;;;;;;8165226;29;20509;-88
2022/11/03 08:07:04;;;;;;;14.32;8.30;;;;;;;;;;8163079;29;20055;-87
2022/11/03 08:11:07;;;;;;;12.10;8.30;;;;;;;;;;8168997;29;20075;-87
2022/11/03 08:15:11;;;;;;;14.90;10.43;;;;;;;;;;8168364;29;20162;-84
2022/11/03 08:19:16;;;;;;;14.27;7.07;;;;;;;;;;8180108;29;20055;-84
2022/11/03 08:23:19;;;;;;;13.98;6.75;;;;;;;;;;8171467;29;20084;-85
2022/11/03 08:27:22;;;;;;;12.48;6.45;;;;;;;;;;8189762;29;20067;-84
2022/11/03 08:31:27;;;;;;;12.00;6.72;;;;;;;;;;8173619;29;20420;-84
2022/11/03 08:35:31;;;;;;;12.35;5.97;;;;;;;;;;8182672;29;20151;-85
2022/11/03 08:39:36;;;;;;;11.50;6.47;;;;;;;;;;8178104;29;20590;-84
2022/11/03 08:43:40;;;;;;;10.57;6.03;;;;;;;;;;8173707;29;20150;-84
2022/11/03 08:47:45;;;;;;;8.43;5.38;;;;;;;;;;8159081;29;20112;-85
2022/11/03 08:51:49;;;;;;;10.75;6.78;;;;;;;;;;8190774;29;20420;-84
2022/11/03 08:55:53;;;;;;;11.55;5.93;;;;;;;;;;8179814;29;20060;-84
2022/11/03 09:10:16;;;;;;;25.15;20.65;;;;;;;;;;8051341;29;20080;-83
2022/11/03 09:14:19;;;;;;;11.50;6.13;;;;;;;;;;8056131;29;20053;-84
2022/11/03 09:18:23;;;;;;;9.13;5.60;;;;;;;;;;8055880;29;20065;-84
2022/11/03 09:31:28;;;;;;;10.88;6.13;;;;;;;;;;8390771;23;20158;-91
2022/11/03 09:35:45;;;;;;;9.93;6.25;;;;;;;;;;8163377;29;20120;-85
2022/11/03 09:40:15;;;;;;;13.88;8.13;;;;;;;;;;8157459;29;20497;-91
2022/11/03 09:44:18;;;;;;;9.43;5.22;;;;;;;;;;8270704;23;20105;-91
2022/11/03 10:19:13;;;;;;;7.43;3.30;;;;;;;;;;9068671;23;20052;-89
2022/11/03 10:23:16;;;;;;;7.10;2.97;;;;;;;;;;8160637;29;20410;-87
2022/11/03 10:27:25;;;;;;;9.27;3.08;;;;;;;;;;8167659;29;20063;-87
2022/11/03 10:31:37;;;;;;;7.70;3.35;;;;;;;;;;8149681;29;20610;-86
2022/11/03 10:40:57;;;;;;;10.63;4.68;;;;;;;;;;8121973;29;20131;-87
2022/11/03 10:45:17;;;;;;;7.80;3.60;;;;;;;;;;8149530;29;20091;-88
2022/11/03 10:49:29;;;;;;;48.47;17.48;;;;;;;;;;8160774;29;20067;-88
2022/11/03 10:53:59;;;;;;;14.13;5.72;;;;;;;;;;8149172;29;20339;-90
2022/11/03 11:07:54;;;;;;;13.18;6.78;;;;;;;;;;8150766;29;20108;-88
2022/11/03 11:12:06;;;;;;;16.10;8.25;;;;;;;;;;8148299;29;20059;-88
2022/11/03 11:16:50;;;;;;;7.97;2.72;;;;;;;;;;8148338;29;20056;-90
2022/11/03 11:20:52;;;;;;;7.88;3.22;;;;;;;;;;8145836;29;20074;-91
2022/11/03 11:25:04;;;;;;;12.13;7.97;;;;;;;;;;8134464;29;20056;-90
2022/11/03 11:29:44;;;;;;;7.10;4.10;;;;;;;;;;8140896;29;21750;-90
2022/11/03 11:33:48;;;;;;;9.90;2.90;;;;;;;;;;8128703;29;20060;-89
2022/11/03 11:37:50;;;;;;;37.88;19.17;;;;;;;;;;8147687;29;20060;-89
2022/11/03 11:51:48;;;;;;;6.50;2.10;;;;;;;;;;8018659;29;20421;-87
2022/11/03 11:56:20;;;;;;;7.70;2.60;;;;;;;;;;8036558;29;20137;-88
2022/11/03 12:00:25;;;;;;;5.32;2.63;;;;;;;;;;8033692;29;20490;-88
2022/11/03 12:04:47;;;;;;;6.82;3.33;;;;;;;;;;8030663;29;20068;-88
2022/11/03 12:09:42;;;;;;;7.30;4.03;;;;;;;;;;8030738;29;20069;-90
2022/11/03 12:13:50;;;;;;;6.03;3.15;;;;;;;;;;8067319;29;20064;-89
2022/11/03 12:17:54;;;;;;;8.00;2.47;;;;;;;;;;8137791;29;20147;-89
2022/11/03 12:27:58;;;;;;;12.10;4.22;;;;;;;;;;8268835;23;20144;-89
2022/11/03 12:32:01;;;;;;;10.57;4.50;;;;;;;;;;8327480;23;20026;-90
2022/11/03 12:36:26;;;;;;;13.63;3.92;;;;;;;;;;8163096;29;20056;-88
2022/11/03 12:40:38;;;;;;;9.93;4.47;;;;;;;;;;8150976;29;20432;-87
2022/11/03 12:44:50;;;;;;;5.88;2.47;;;;;;;;;;8133190;29;20454;-89
2022/11/03 12:48:55;;;;;;;7.03;3.30;;;;;;;;;;8145980;29;20062;-88
2022/11/03 12:52:57;;;;;;;5.80;2.65;;;;;;;;;;8152873;29;20063;-88
2022/11/03 12:57:00;;;;;;;8.90;2.95;;;;;;;;;;8154311;29;21312;-90
2022/11/03 13:01:04;;;;;;;16.88;7.40;;;;;;;;;;8146733;29;20047;-89
2022/11/03 13:05:08;;;;;;;11.20;4.10;;;;;;;;;;8145675;29;20060;-90
2022/11/03 13:09:11;;;;;;;7.30;3.15;;;;;;;;;;8142100;29;20078;-86
2022/11/03 13:13:13;;;;;;;8.02;3.10;;;;;;;;;;8151400;29;20063;-89
2022/11/03 13:17:17;;;;;;;11.68;3.45;;;;;;;;;;8155128;29;20090;-87
2022/11/03 13:21:20;;;;;;;8.20;3.00;;;;;;;;;;8166779;29;20171;-86
2022/11/03 13:25:23;;;;;;;7.22;3.00;;;;;;;;;;8150361;29;20056;-90
2022/11/03 13:29:35;;;;;;;7.55;4.22;;;;;;;;;;8150676;29;20060;-87
2022/11/03 13:33:42;;;;;;;7.25;3.75;;;;;;;;;;8150356;29;20497;-87
2022/11/03 13:37:51;;;;;;;9.25;3.75;;;;;;;;;;8140196;29;20052;-87
2022/11/03 13:42:00;;;;;;;8.80;3.83;;;;;;;;;;8137265;29;20056;-87
2022/11/03 13:46:20;;;;;;;8.88;3.70;;;;;;;;;;8140022;29;20086;-91
2022/11/03 13:50:29;;;;;;;8.35;3.85;;;;;;;;;;8144310;29;20051;-86
2022/11/03 13:54:40;;;;;;;13.23;4.95;;;;;;;;;;8168162;29;20457;-87
2022/11/03 13:58:46;;;;;;;32.58;13.48;;;;;;;;;;8155995;29;20159;-86
2022/11/03 14:02:51;;;;;;;47.03;26.67;;;;;;;;;;8162209;29;20388;-86
2022/11/03 14:15:49;;;;;;;20.77;10.93;;;;;;;;;;8148501;29;20063;-85
2022/11/03 14:19:58;;;;;;;13.05;6.63;;;;;;;;;;8167434;29;20074;-85
2022/11/03 14:24:07;;;;;;;15.32;6.15;;;;;;;;;;8167646;29;20060;-85
2022/11/03 14:28:13;;;;;;;11.50;6.05;;;;;;;;;;8157053;29;20055;-86
2022/11/03 14:33:09;;;;;;;16.75;7.43;;;;;;;;;;8147968;29;20088;-85
2022/11/03 14:37:21;;;;;;;67.38;31.67;;;;;;;;;;8142341;29;20138;-85
2022/11/03 14:46:14;;;;;;;34.60;16.27;;;;;;;;;;8151762;29;20079;-85
2022/11/03 14:50:25;;;;;;;25.50;13.32;;;;;;;;;;8153422;29;20551;-84
2022/11/03 14:54:39;;;;;;;18.85;8.50;;;;;;;;;;8154538;29;20056;-84
2022/11/03 14:58:47;;;;;;;13.73;6.38;;;;;;;;;;8134583;29;20056;-85
2022/11/03 15:02:55;;;;;;;13.17;6.00;;;;;;;;;;8151665;29;20128;-84
2022/11/03 15:06:59;;;;;;;26.83;11.57;;;;;;;;;;8166017;29;20102;-87
2022/11/03 15:11:04;;;;;;;55.38;23.15;;;;;;;;;;8151270;29;20108;-85
2022/11/03 15:15:09;;;;;;;14.70;8.02;;;;;;;;;;8161865;29;20051;-87
2022/11/03 15:19:12;;;;;;;16.55;8.43;;;;;;;;;;8154002;29;20544;-87
2022/11/03 15:23:19;;;;;;;13.98;6.93;;;;;;;;;;8235175;23;20055;-85
2022/11/03 15:32:01;;;;;;;12.95;6.07;;;;;;;;;;8159953;29;20076;-86
2022/11/03 15:36:11;;;;;;;19.63;8.52;;;;;;;;;;8160426;29;20055;-86
2022/11/03 15:40:32;;;;;;;10.35;6.32;;;;;;;;;;8153715;29;20055;-87
2022/11/03 15:44:42;;;;;;;12.27;7.55;;;;;;;;;;8148076;29;20070;-85
2022/11/03 15:49:03;;;;;;;11.38;6.30;;;;;;;;;;8149453;29;20051;-87
2022/11/03 15:53:12;;;;;;;27.33;14.45;;;;;;;;;;8149926;29;20064;-84
2022/11/03 15:57:19;;;;;;;26.67;12.60;;;;;;;;;;8148998;29;20486;-85
2022/11/03 16:01:37;;;;;;;23.17;11.95;;;;;;;;;;8134718;29;20059;-86
2022/11/03 16:05:48;;;;;;;16.40;8.10;;;;;;;;;;8150548;29;20100;-83
2022/11/03 16:09:59;;;;;;;17.10;8.55;;;;;;;;;;8141358;29;20420;-86
2022/11/03 16:14:03;;;;;;;21.02;10.68;;;;;;;;;;8147091;29;20066;-87
2022/11/03 16:18:07;;;;;;;17.23;8.40;;;;;;;;;;8130589;29;20115;-86
2022/11/03 16:22:13;;;;;;;32.13;17.52;;;;;;;;;;8149460;29;20055;-85
2022/11/03 16:26:30;;;;;;;26.38;12.77;;;;;;;;;;8143388;29;20138;-85
2022/11/03 16:31:00;;;;;;;20.15;9.95;;;;;;;;;;8147629;29;20083;-83
2022/11/03 16:50:48;;;;;;;78.95;36.58;;;;;;;;;;10270354;22;2115250;-84
2022/11/03 16:55:00;;;;;;;79.15;42.38;;;;;;;;;;10355963;22;20027;-88
2022/11/03 17:03:20;;;;;;;102.82;51.90;;;;;;;;;;10395174;22;20432;-89
2022/11/03 17:07:24;;;;;;;100.05;54.53;;;;;;;;;;10397412;22;20016;-87
2022/11/03 17:11:35;;;;;;;63.53;32.15;;;;;;;;;;10370226;22;20022;-84
2022/11/03 17:15:38;;;;;;;44.50;20.83;;;;;;;;;;10372311;22;20033;-87
2022/11/03 17:19:41;;;;;;;50.90;24.13;;;;;;;;;;10396660;22;20448;-88
2022/11/03 17:23:46;;;;;;;46.20;24.95;;;;;;;;;;10396890;22;20019;-84
2022/11/03 17:27:55;;;;;;;25.63;13.05;;;;;;;;;;10414763;22;20019;-88
2022/11/03 17:31:57;;;;;;;18.15;10.70;;;;;;;;;;10370695;22;20034;-87
2022/11/03 17:40:48;;;;;;;34.13;16.35;;;;;;;;;;10338681;22;20066;-85
2022/11/03 17:44:53;;;;;;;79.63;40.35;;;;;;;;;;10310274;23;20020;-88
2022/11/03 17:48:58;;;;;;;65.20;35.15;;;;;;;;;;10289646;23;20031;-85
2022/11/03 17:53:02;;;;;;;70.68;35.40;;;;;;;;;;10256699;23;20021;-87
2022/11/03 17:57:06;;;;;;;239.65;107.20;;;;;;;;;;10257098;23;20016;-87
2022/11/03 18:01:10;;;;;;;55.65;29.60;;;;;;;;;;10295790;23;20031;-84
2022/11/03 18:05:25;;;;;;;71.13;32.22;;;;;;;;;;10256839;23;20028;-84
2022/11/03 18:09:28;;;;;;;38.97;18.40;;;;;;;;;;10252631;23;20020;-87
2022/11/03 18:13:34;;;;;;;41.03;22.00;;;;;;;;;;10282566;23;20023;-90
2022/11/03 18:17:41;;;;;;;32.00;15.80;;;;;;;;;;10299479;23;20408;-91
2022/11/03 18:21:45;;;;;;;42.17;17.73;;;;;;;;;;10281193;23;20020;-84
2022/11/03 18:25:50;;;;;;;41.70;17.90;;;;;;;;;;10255284;23;20020;-90
2022/11/03 18:29:58;;;;;;;44.65;22.75;;;;;;;;;;10282198;23;20027;-83
2022/11/03 18:34:04;;;;;;;34.13;18.15;;;;;;;;;;10255142;23;20605;-85
2022/11/03 18:38:12;;;;;;;61.95;20.75;;;;;;;;;;10255610;23;20586;-85
2022/11/03 18:42:17;;;;;;;42.75;18.00;;;;;;;;;;10273292;22;20046;-86
2022/11/03 18:46:21;;;;;;;35.30;16.83;;;;;;;;;;10305821;23;20038;-86
2022/11/03 18:50:27;;;;;;;39.58;18.48;;;;;;;;;;10332532;23;20075;-90
2022/11/03 18:54:33;;;;;;;30.05;14.52;;;;;;;;;;10310589;23;20020;-86
2022/11/03 18:58:38;;;;;;;27.88;14.52;;;;;;;;;;10354378;23;20039;-83
2022/11/03 19:02:43;;;;;;;26.58;13.75;;;;;;;;;;10311784;23;20497;-91
2022/11/03 19:06:50;;;;;;;30.13;14.30;;;;;;;;;;10312675;23;20031;-86
2022/11/03 19:10:54;;;;;;;29.02;11.70;;;;;;;;;;10311978;23;20345;-86
2022/11/03 19:14:58;;;;;;;26.60;11.90;;;;;;;;;;10311869;23;20032;-84
2022/11/03 19:19:05;;;;;;;26.27;11.40;;;;;;;;;;10311624;23;20020;-84
2022/11/03 19:23:11;;;;;;;35.30;14.50;;;;;;;;;;10311140;23;20016;-83
2022/11/03 19:27:17;;;;;;;44.35;18.95;;;;;;;;;;10311686;23;20455;-84
2022/11/03 19:31:27;;;;;;;31.48;13.13;;;;;;;;;;10311919;23;20027;-85
2022/11/03 19:35:35;;;;;;;30.63;13.10;;;;;;;;;;10311528;23;20027;-84
2022/11/03 19:39:41;;;;;;;49.97;18.23;;;;;;;;;;10311169;23;20089;-84
2022/11/03 19:43:44;;;;;;;44.33;17.00;;;;;;;;;;10286293;23;20028;-85
2022/11/03 19:47:54;;;;;;;155.55;57.03;;;;;;;;;;10286099;23;20330;-84
2022/11/03 19:51:59;;;;;;;38.13;16.42;;;;;;;;;;10285701;23;20345;-83
2022/11/03 19:56:07;;;;;;;33.20;13.65;;;;;;;;;;10284770;23;20335;-89
2022/11/03 20:00:16;;;;;;;31.50;12.32;;;;;;;;;;10285852;23;20453;-83
2022/11/03 20:04:19;;;;;;;43.70;15.50;;;;;;;;;;10286226;23;20067;-82
2022/11/03 20:08:27;;;;;;;24.58;11.10;;;;;;;;;;10285936;23;20079;-84
2022/11/03 20:12:31;;;;;;;49.50;16.73;;;;;;;;;;10285989;23;20096;-83
2022/11/03 20:16:36;;;;;;;45.15;16.35;;;;;;;;;;10285926;23;20016;-83
2022/11/03 20:20:49;;;;;;;29.45;12.68;;;;;;;;;;10285952;23;20033;-83
2022/11/03 20:24:59;;;;;;;63.33;21.20;;;;;;;;;;10287161;23;20540;-86
2022/11/03 20:29:03;;;;;;;25.83;11.48;;;;;;;;;;10284656;23;20103;-85
2022/11/03 20:33:09;;;;;;;28.75;14.27;;;;;;;;;;10285815;23;20024;-83
2022/11/03 20:37:18;;;;;;;200.80;49.95;;;;;;;;;;10285720;23;20027;-83
2022/11/03 20:41:28;;;;;;;66.50;20.73;;;;;;;;;;10291345;22;20457;-87
2022/11/03 20:45:34;;;;;;;62.70;22.27;;;;;;;;;;10310434;23;20408;-83
2022/11/03 20:49:38;;;;;;;27.10;12.98;;;;;;;;;;10337137;23;20023;-83
2022/11/03 20:53:44;;;;;;;26.73;9.85;;;;;;;;;;10309107;23;20399;-83
2022/11/03 20:57:52;;;;;;;29.83;11.32;;;;;;;;;;10353965;23;20020;-87
2022/11/03 21:01:56;;;;;;;18.48;7.07;;;;;;;;;;10310336;23;20344;-89
2022/11/03 21:05:58;;;;;;;19.63;10.13;;;;;;;;;;10336387;23;20074;-83
2022/11/03 21:10:01;;;;;;;26.17;10.80;;;;;;;;;;10367072;23;20031;-84
2022/11/03 21:14:14;;;;;;;76.00;22.00;;;;;;;;;;10367136;23;20020;-84
2022/11/03 21:22:42;;;;;;;23.85;9.07;;;;;;;;;;10338099;23;20048;-83
2022/11/03 22:55:53;;;;;;;18.02;5.95;;;;;;;;;;10184048;23;20024;-84
2022/11/03 22:59:56;;;;;;;14.45;6.82;;;;;;;;;;10239772;23;20085;-84
2022/11/03 23:03:59;;;;;;;21.90;8.82;;;;;;;;;;10338177;23;20099;-83
2022/11/03 23:08:03;;;;;;;17.02;8.07;;;;;;;;;;10311642;23;20467;-84
2022/11/03 23:12:08;;;;;;;16.70;7.20;;;;;;;;;;10311164;23;20016;-85
2022/11/03 23:16:13;;;;;;;13.00;6.95;;;;;;;;;;10311470;23;20074;-85
2022/11/03 23:29:01;;;;;;;25.60;8.82;;;;;;;;;;10311044;23;20019;-83
2022/11/03 23:33:04;;;;;;;17.13;8.25;;;;;;;;;;10311068;23;20387;-85
2022/11/03 23:37:09;;;;;;;16.60;7.25;;;;;;;;;;10337675;23;20388;-89
2022/11/03 23:41:14;;;;;;;16.77;7.88;;;;;;;;;;10310794;23;20020;-84
2022/11/03 23:49:41;;;;;;;26.93;10.83;;;;;;;;;;10260828;23;20397;-83
2022/11/03 23:53:46;;;;;;;16.70;6.93;;;;;;;;;;10286190;23;20103;-84
